Time;durP1;ratioP1;P1;durP2;ratioP2;P2;SDS_P1;SDS_P2;PMS_P1;PMS_P2;Temp;Humidity;BMP_temperature;BMP_pressure;BME280_temperature;BME280_humidity;BME280_pressure;Samples;Min_cycle;Max_cycle;Signal;HPM_P1;HPM_P2
2022/04/21 00:00:59;;;;;;;4.25;2.05;;;;;;;19.04;25.79;100937.69;5008008;28;20088;-77
2022/04/21 00:03:25;;;;;;;3.30;1.67;;;;;;;19.02;25.58;100939.75;5007022;28;20145;-77
2022/04/21 00:05:52;;;;;;;3.47;1.88;;;;;;;18.98;25.67;100944.66;4999011;28;20086;-77
2022/04/21 00:08:20;;;;;;;3.55;1.92;;;;;;;18.97;25.35;100940.19;5010462;28;20073;-77
2022/04/21 00:10:47;;;;;;;3.55;2.10;;;;;;;18.93;25.49;100945.16;5010031;28;20052;-77
2022/04/21 00:13:14;;;;;;;6.20;2.08;;;;;;;18.92;25.49;100939.81;5007956;28;20104;-77
2022/04/21 00:15:40;;;;;;;3.33;2.00;;;;;;;18.88;25.64;100938.34;5001796;28;20134;-78
2022/04/21 00:18:07;;;;;;;3.70;2.00;;;;;;;18.87;25.55;100944.88;5008019;28;20057;-77
2022/04/21 00:20:34;;;;;;;3.38;2.00;;;;;;;18.84;25.51;100943.31;5007023;28;20100;-77
2022/04/21 00:25:46;;;;;;;3.42;1.67;;;;;;;18.78;25.46;100938.41;5007993;28;20175;-78
2022/04/21 00:28:13;;;;;;;3.08;2.05;;;;;;;18.76;25.77;100932.22;5009740;28;20556;-77
2022/04/21 00:30:41;;;;;;;3.63;1.92;;;;;;;18.75;25.69;100932.38;4999677;28;20053;-77
2022/04/21 00:33:08;;;;;;;4.57;2.10;;;;;;;18.70;25.66;100927.31;5010757;28;20493;-77
2022/04/21 00:35:34;;;;;;;3.40;1.67;;;;;;;18.68;26.11;100931.25;5009880;28;20057;-77
2022/04/21 00:38:01;;;;;;;4.22;2.00;;;;;;;18.65;25.71;100937.03;5010426;28;20125;-77
2022/04/21 00:40:29;;;;;;;3.33;2.00;;;;;;;18.63;25.94;100937.19;5006850;28;20618;-77
2022/04/21 00:42:57;;;;;;;4.70;2.17;;;;;;;18.59;25.84;100939.41;5007294;28;20084;-78
2022/04/21 00:45:25;;;;;;;3.10;1.85;;;;;;;18.56;25.72;100930.53;5008144;28;20149;-77
2022/04/21 00:47:53;;;;;;;3.17;1.98;;;;;;;18.54;26.01;100936.19;5010474;28;20452;-77
2022/04/21 00:50:29;;;;;;;2.90;1.73;;;;;;;18.51;26.18;100931.00;5008995;28;20045;-77
2022/04/21 00:52:58;;;;;;;4.05;2.10;;;;;;;18.46;26.14;100927.81;5009526;28;20412;-77
2022/04/21 00:55:25;;;;;;;3.10;1.90;;;;;;;18.43;26.09;100936.41;5005825;28;20533;-77
2022/04/21 00:57:54;;;;;;;2.90;2.17;;;;;;;18.41;26.40;100934.81;5007107;28;20077;-77
2022/04/21 01:00:21;;;;;;;4.53;2.40;;;;;;;18.37;26.31;100934.22;5006773;28;20501;-78
2022/04/21 01:02:50;;;;;;;3.50;2.20;;;;;;;18.34;26.21;100926.31;5005561;28;20050;-78
2022/04/21 01:05:31;;;;;;;4.10;2.30;;;;;;;18.31;26.42;100928.47;4995474;28;20058;-77
2022/04/21 01:08:02;;;;;;;3.13;2.00;;;;;;;18.25;26.29;100927.19;5010434;28;20046;-77
2022/04/21 01:10:30;;;;;;;3.58;2.35;;;;;;;18.25;26.51;100925.31;5006848;28;20081;-77
2022/04/21 01:12:58;;;;;;;3.10;2.13;;;;;;;18.20;26.52;100922.13;5002418;28;20102;-77
2022/04/21 01:15:26;;;;;;;3.70;1.80;;;;;;;18.19;26.53;100930.56;5007084;28;20061;-78
2022/04/21 01:17:53;;;;;;;2.92;1.98;;;;;;;18.18;26.58;100924.19;5016465;28;20715;-77
2022/04/21 01:20:21;;;;;;;3.65;2.10;;;;;;;18.16;26.37;100922.59;5014608;28;20049;-77
2022/04/21 01:22:48;;;;;;;4.22;2.30;;;;;;;18.13;26.61;100921.00;5008102;28;20050;-77
2022/04/21 01:25:15;;;;;;;4.07;2.20;;;;;;;18.14;26.71;100919.13;5009399;28;20050;-78
2022/04/21 01:27:43;;;;;;;3.22;2.00;;;;;;;18.14;26.51;100919.13;5015498;28;20493;-77
2022/04/21 01:30:12;;;;;;;3.40;2.13;;;;;;;18.13;26.83;100915.50;5014324;28;20054;-77
2022/04/21 01:32:44;;;;;;;4.15;2.30;;;;;;;18.14;27.19;100921.88;5003102;28;20092;-77
2022/04/21 01:35:12;;;;;;;3.15;2.22;;;;;;;18.10;26.67;100907.59;5005590;28;20061;-77
2022/04/21 01:43:11;;;;;;;3.03;2.17;;;;;;;18.08;26.72;100901.38;5012569;28;20046;-77
2022/04/21 01:45:38;;;;;;;4.10;2.33;;;;;;;18.08;26.36;100900.50;5009470;28;20057;-77
2022/04/21 01:48:05;;;;;;;4.00;2.33;;;;;;;18.06;26.86;100899.78;5016474;28;20116;-77
2022/04/21 01:50:33;;;;;;;4.10;2.10;;;;;;;18.05;26.51;100896.16;5015157;28;20132;-77
2022/04/21 01:53:00;;;;;;;4.07;2.28;;;;;;;18.02;26.57;100896.47;4995643;28;20329;-78
2022/04/21 01:55:27;;;;;;;3.50;2.03;;;;;;;18.01;26.91;100889.25;5012823;28;20046;-77
2022/04/21 01:57:54;;;;;;;4.18;2.50;;;;;;;18.00;26.64;100892.16;5013206;28;20552;-77
2022/04/21 02:00:21;;;;;;;3.90;2.20;;;;;;;17.98;26.87;100895.03;5010296;28;20556;-77
2022/04/21 02:02:48;;;;;;;4.38;2.30;;;;;;;17.97;27.18;100895.19;5006840;28;20042;-77
2022/04/21 02:05:15;;;;;;;4.40;2.55;;;;;;;17.94;27.00;100885.38;5014266;28;20061;-78
2022/04/21 02:07:44;;;;;;;4.25;2.58;;;;;;;17.94;26.88;100890.88;5011677;28;20409;-77
2022/04/21 02:10:12;;;;;;;4.30;2.42;;;;;;;17.90;27.16;100885.81;5009428;28;20057;-77
2022/04/21 02:12:39;;;;;;;6.38;3.17;;;;;;;17.85;26.76;100884.38;5002617;28;20046;-77
2022/04/21 02:15:06;;;;;;;4.53;2.92;;;;;;;17.82;26.81;100875.56;5012017;28;20108;-78
2022/04/21 02:17:33;;;;;;;4.85;3.25;;;;;;;17.80;27.18;100883.06;5011678;28;20555;-77
2022/04/21 02:20:01;;;;;;;4.68;2.90;;;;;;;17.77;26.95;100881.53;5014356;28;20085;-77
2022/04/21 02:22:28;;;;;;;4.82;3.10;;;;;;;17.73;26.97;100874.56;5004821;28;20132;-77
2022/04/21 02:24:54;;;;;;;5.72;3.38;;;;;;;17.70;27.20;100874.88;5007891;28;20082;-77
2022/04/21 02:27:21;;;;;;;6.13;3.20;;;;;;;17.67;27.02;100879.78;5012008;28;20126;-77
2022/04/21 02:29:48;;;;;;;5.07;3.38;;;;;;;17.65;27.20;100876.31;5011568;28;20057;-77
2022/04/21 02:32:15;;;;;;;7.10;3.47;;;;;;;17.61;27.54;100881.22;5004696;28;20084;-77
2022/04/21 02:34:42;;;;;;;4.50;3.15;;;;;;;17.59;27.18;100875.00;5002122;28;20077;-77
2022/04/21 02:37:08;;;;;;;4.85;3.03;;;;;;;17.57;27.37;100870.66;5010875;28;20093;-77
2022/04/21 02:39:35;;;;;;;4.80;3.10;;;;;;;17.54;27.01;100873.72;5000452;28;20054;-77
2022/04/21 02:42:02;;;;;;;4.97;3.10;;;;;;;17.50;27.51;100865.78;5000319;28;20046;-77
2022/04/21 02:44:29;;;;;;;4.22;2.70;;;;;;;17.49;27.52;100868.66;5008344;28;20076;-77
2022/04/21 02:46:59;;;;;;;5.35;3.03;;;;;;;17.47;27.20;100871.53;5007292;28;20053;-77
2022/04/21 02:49:26;;;;;;;4.18;2.70;;;;;;;17.45;27.59;100868.09;5005718;28;20131;-77
2022/04/21 02:51:54;;;;;;;4.47;2.88;;;;;;;17.44;27.38;100868.25;5007195;28;20047;-77
2022/04/21 02:57:21;;;;;;;3.85;2.60;;;;;;;17.39;27.72;100865.06;5011024;28;20077;-77
2022/04/21 02:59:59;;;;;;;4.10;2.67;;;;;;;17.41;27.93;100865.78;5012512;28;20066;-77
2022/04/21 03:02:26;;;;;;;5.60;2.63;;;;;;;17.36;27.50;100868.97;5015138;28;20077;-77
2022/04/21 03:04:54;;;;;;;3.45;2.60;;;;;;;17.34;27.38;100864.63;5009820;28;20062;-77
2022/04/21 03:07:22;;;;;;;3.85;2.60;;;;;;;17.34;27.61;100865.50;5011121;28;20053;-77
2022/04/21 03:09:55;;;;;;;4.38;2.72;;;;;;;17.33;28.04;100868.41;5004976;28;20057;-77
2022/04/21 03:12:23;;;;;;;4.30;2.42;;;;;;;17.29;27.79;100865.09;5009683;28;20452;-77
2022/04/21 03:14:50;;;;;;;5.50;2.70;;;;;;;17.27;27.78;100872.59;5004605;28;20050;-78
2022/04/21 03:17:17;;;;;;;3.78;2.70;;;;;;;17.25;27.67;100869.13;5009573;28;20305;-77
2022/04/21 03:19:43;;;;;;;4.32;2.70;;;;;;;17.25;27.71;100860.03;5007518;28;20074;-77
2022/04/21 03:25:00;;;;;;;4.15;2.80;;;;;;;17.22;27.82;100863.03;5004859;28;20281;-77
2022/04/21 03:27:28;;;;;;;4.03;2.45;;;;;;;17.17;27.79;100874.47;5009976;28;20058;-77
2022/04/21 03:29:58;;;;;;;5.53;2.92;;;;;;;17.18;27.91;100873.47;5005822;28;20069;-77
2022/04/21 03:32:26;;;;;;;5.10;2.50;;;;;;;17.15;27.88;100865.50;5009109;28;20053;-77
2022/04/21 03:34:53;;;;;;;3.88;2.50;;;;;;;17.15;28.13;100870.13;5014650;28;20069;-77
2022/04/21 03:37:21;;;;;;;4.15;2.40;;;;;;;17.13;27.89;100871.13;5009885;28;20433;-77
2022/04/21 03:39:47;;;;;;;4.95;2.70;;;;;;;17.13;27.99;100867.53;5007738;28;20132;-77
2022/04/21 03:42:26;;;;;;;3.75;2.42;;;;;;;17.15;28.47;100873.72;5000888;28;20077;-77
2022/04/21 03:44:54;;;;;;;4.63;2.75;;;;;;;17.12;28.19;100876.78;5009250;28;20100;-77
2022/04/21 03:47:21;;;;;;;4.10;2.80;;;;;;;17.10;28.30;100873.31;5004347;28;20050;-77
2022/04/21 03:49:48;;;;;;;4.00;2.50;;;;;;;17.09;28.06;100880.69;5000068;28;20137;-77
2022/04/21 03:52:17;;;;;;;4.03;2.50;;;;;;;17.09;28.00;100875.19;5012494;28;20045;-77
2022/04/21 03:54:44;;;;;;;3.50;2.42;;;;;;;17.07;28.08;100885.44;5001986;28;20066;-77
2022/04/21 04:00:58;;;;;;;3.65;2.40;;;;;;;16.99;28.50;100879.78;5009242;28;20053;-77
2022/04/21 04:03:25;;;;;;;4.20;2.50;;;;;;;17.00;28.33;100876.03;5004662;28;20082;-77
2022/04/21 04:05:52;;;;;;;4.00;2.80;;;;;;;17.00;28.37;100872.44;5002731;28;20058;-77
2022/04/21 04:11:03;;;;;;;5.38;2.50;;;;;;;16.95;28.09;100881.09;5004440;28;20801;-77
2022/04/21 04:13:30;;;;;;;3.85;2.50;;;;;;;16.94;28.09;100887.59;5007216;28;20465;-77
2022/04/21 04:15:57;;;;;;;4.32;2.95;;;;;;;16.94;28.39;100876.63;5007894;28;20054;-77
2022/04/21 04:18:23;;;;;;;4.50;2.78;;;;;;;16.91;28.46;100879.66;5005399;28;20187;-77
2022/04/21 04:20:50;;;;;;;3.95;2.70;;;;;;;16.89;28.57;100883.53;5009476;28;20085;-77
2022/04/21 04:23:19;;;;;;;4.53;2.83;;;;;;;16.87;28.29;100869.97;5004165;28;20081;-78
2022/04/21 04:25:46;;;;;;;4.65;3.00;;;;;;;16.85;28.25;100872.00;5006452;28;20738;-77
2022/04/21 04:28:13;;;;;;;5.05;3.10;;;;;;;16.82;28.31;100871.41;5010510;28;20050;-77
2022/04/21 04:30:40;;;;;;;4.70;3.00;;;;;;;16.81;28.47;100870.53;5000599;28;20457;-77
2022/04/21 04:33:07;;;;;;;4.40;2.90;;;;;;;16.79;28.51;100871.69;5010986;28;20073;-77
2022/04/21 04:35:34;;;;;;;3.92;2.75;;;;;;;16.77;28.31;100870.97;5007162;28;20077;-77
2022/04/21 04:38:01;;;;;;;4.85;3.00;;;;;;;16.74;28.36;100875.72;5007238;28;20062;-77
2022/04/21 04:40:27;;;;;;;5.13;3.33;;;;;;;16.72;28.65;100877.72;5008676;28;20077;-77
2022/04/21 04:42:55;;;;;;;4.70;2.95;;;;;;;16.71;28.86;100886.13;5005271;28;20111;-77
2022/04/21 04:48:07;;;;;;;4.32;2.80;;;;;;;16.66;28.59;100877.44;5005172;28;20470;-78
2022/04/21 04:50:33;;;;;;;4.30;2.65;;;;;;;16.65;28.79;100876.56;5007698;28;20378;-78
2022/04/21 04:53:06;;;;;;;5.30;3.17;;;;;;;16.63;28.69;100875.00;5005970;28;20481;-78
2022/04/21 04:55:32;;;;;;;4.68;3.00;;;;;;;16.63;28.80;100875.00;5001490;28;20093;-78
2022/04/21 04:57:59;;;;;;;5.75;3.45;;;;;;;16.63;28.88;100869.50;5005587;28;20463;-78
2022/04/21 05:00:27;;;;;;;5.97;3.72;;;;;;;16.62;28.68;100871.38;5009101;28;20050;-78
2022/04/21 05:02:54;;;;;;;5.63;3.15;;;;;;;16.60;28.83;100872.50;5010170;28;20460;-78
2022/04/21 05:05:28;;;;;;;5.80;3.83;;;;;;;16.59;28.81;100873.50;5006056;28;20155;-78
2022/04/21 05:07:54;;;;;;;5.53;3.42;;;;;;;16.58;28.91;100869.88;5007399;28;20142;-78
2022/04/21 05:10:23;;;;;;;4.50;3.42;;;;;;;16.57;28.76;100867.28;5006302;28;20552;-78
2022/04/21 05:12:49;;;;;;;5.72;3.55;;;;;;;16.55;28.72;100869.31;5008735;28;20042;-78
2022/04/21 05:16:03;;;;;;;5.28;3.47;;;;;;;16.53;29.11;100868.59;5007239;28;20618;-78
2022/04/21 05:18:32;;;;;;;4.47;3.22;;;;;;;16.45;29.00;100863.81;5007326;28;20057;-78
2022/04/21 05:20:59;;;;;;;4.65;3.20;;;;;;;16.48;28.93;100863.50;5011511;28;20390;-78
2022/04/21 05:23:32;;;;;;;4.30;3.10;;;;;;;16.49;29.13;100867.97;5002513;28;20097;-78
2022/04/21 05:26:01;;;;;;;5.18;3.58;;;;;;;16.48;28.97;100862.63;5007636;28;20073;-78
2022/04/21 05:28:28;;;;;;;5.53;3.53;;;;;;;16.49;28.99;100864.38;5007207;28;20084;-78
2022/04/21 05:30:55;;;;;;;6.03;3.40;;;;;;;16.50;28.86;100861.50;5007987;28;20108;-78
2022/04/21 05:33:24;;;;;;;5.43;3.28;;;;;;;16.54;29.17;100867.56;5008022;28;20045;-78
2022/04/21 05:35:51;;;;;;;5.38;3.20;;;;;;;16.56;28.96;100862.78;5008686;28;20045;-80
2022/04/21 05:38:20;;;;;;;4.93;3.38;;;;;;;16.58;28.81;100864.41;5002809;28;20483;-77
2022/04/21 05:40:47;;;;;;;5.18;2.88;;;;;;;16.61;29.15;100860.56;5002885;28;20551;-77
2022/04/21 05:43:20;;;;;;;6.53;3.38;;;;;;;16.65;29.34;100865.59;5006535;28;20072;-78
2022/04/21 05:45:47;;;;;;;;;;;;;;;16.41;29.55;100862.34;5002172;28;20050;-78
2022/04/21 05:48:15;;;;;;;4.55;3.00;;;;;;;16.67;29.26;100858.09;5009369;28;19921;-78
2022/04/21 05:50:49;;;;;;;5.63;3.22;;;;;;;16.75;29.04;100857.41;5008068;28;20112;-77
2022/04/21 05:53:21;;;;;;;4.15;2.88;;;;;;;16.78;29.10;100850.78;5002959;28;20109;-77
2022/04/21 05:55:49;;;;;;;4.25;3.00;;;;;;;16.80;28.97;100854.25;5006151;28;20073;-77
2022/04/21 05:58:16;;;;;;;4.65;3.03;;;;;;;16.83;28.71;100857.56;4999225;28;20078;-77
2022/04/21 06:00:43;;;;;;;4.88;3.08;;;;;;;16.86;28.87;100853.66;5003149;28;20042;-77
2022/04/21 06:03:11;;;;;;;5.25;2.92;;;;;;;16.87;28.77;100849.91;5007966;28;20102;-77
2022/04/21 06:05:39;;;;;;;5.55;3.00;;;;;;;16.89;28.88;100854.22;5001997;28;20061;-76
2022/04/21 06:08:08;;;;;;;3.88;2.58;;;;;;;16.93;28.44;100852.94;5007547;28;20165;-76
2022/04/21 06:10:36;;;;;;;4.05;3.15;;;;;;;16.95;28.65;100861.03;5006709;28;20062;-76
2022/04/21 06:13:03;;;;;;;5.18;2.92;;;;;;;17.02;28.88;100851.22;5007801;28;20107;-76
2022/04/21 06:15:30;;;;;;;4.88;2.90;;;;;;;17.02;28.43;100853.97;5008892;28;20082;-76
2022/04/21 06:17:58;;;;;;;5.07;3.22;;;;;;;17.03;28.26;100842.84;5007412;28;20331;-75
2022/04/21 06:20:28;;;;;;;4.93;2.80;;;;;;;17.07;28.77;100844.28;5009586;28;20115;-76
2022/04/21 06:22:55;;;;;;;4.88;2.90;;;;;;;17.10;28.52;100852.22;5012879;28;20054;-76
2022/04/21 06:25:22;;;;;;;4.43;3.00;;;;;;;17.11;28.44;100853.97;5003847;28;20074;-76
2022/04/21 06:27:49;;;;;;;4.93;2.60;;;;;;;17.17;28.49;100854.38;5005098;28;20145;-76
2022/04/21 06:30:16;;;;;;;5.78;2.88;;;;;;;17.19;28.81;100852.38;5011178;28;20064;-76
2022/04/21 06:32:43;;;;;;;4.72;3.08;;;;;;;17.25;28.82;100854.53;5010896;28;20077;-76
2022/04/21 06:35:10;;;;;;;4.03;2.67;;;;;;;17.29;28.34;100854.13;5005391;28;20576;-76
2022/04/21 06:37:36;;;;;;;4.53;3.00;;;;;;;17.36;28.46;100849.78;5013167;28;20617;-76
2022/04/21 06:40:04;;;;;;;5.88;3.00;;;;;;;17.43;28.58;100841.81;5001298;28;20150;-76
2022/04/21 06:42:30;;;;;;;4.35;2.60;;;;;;;17.50;27.75;100852.06;5011619;28;20508;-76
2022/04/21 06:50:37;;;;;;;4.78;3.40;;;;;;;17.70;28.38;100847.44;5010564;28;20100;-75
2022/04/21 06:53:06;;;;;;;4.63;2.85;;;;;;;17.79;28.51;100841.00;5006893;28;20141;-76
2022/04/21 06:55:33;;;;;;;4.35;2.78;;;;;;;17.91;28.30;100849.09;5011562;28;20086;-76
2022/04/21 06:58:00;;;;;;;5.20;2.72;;;;;;;18.03;28.63;100847.91;5007731;28;20061;-76
2022/04/21 07:00:27;;;;;;;4.35;2.83;;;;;;;18.23;28.33;100849.53;5006684;28;20051;-77
2022/04/21 07:02:57;;;;;;;4.55;2.80;;;;;;;18.37;28.45;100850.91;5009070;28;20053;-76
2022/04/21 07:05:25;;;;;;;5.25;2.85;;;;;;;18.54;28.25;100842.69;5001393;28;20058;-76
2022/04/21 07:07:53;;;;;;;5.13;2.88;;;;;;;18.72;28.08;100841.91;5015078;28;20057;-75
2022/04/21 07:10:20;;;;;;;4.75;2.90;;;;;;;18.88;28.00;100850.31;5012743;28;20076;-75
2022/04/21 07:12:47;;;;;;;4.22;2.75;;;;;;;19.07;28.11;100849.31;5001855;28;20077;-76
2022/04/21 07:15:15;;;;;;;4.03;2.88;;;;;;;19.25;27.70;100856.56;4998762;28;20077;-76
2022/04/21 07:17:42;;;;;;;5.82;2.53;;;;;;;19.45;27.95;100861.84;5008438;28;20050;-75
2022/04/21 07:20:12;;;;;;;4.93;2.70;;;;;;;19.65;27.53;100860.69;5007322;28;20464;-76
2022/04/21 07:22:39;;;;;;;3.72;2.35;;;;;;;19.83;27.84;100866.16;5013032;28;20088;-76
2022/04/21 07:25:08;;;;;;;3.90;2.40;;;;;;;20.02;27.29;100863.16;5009895;28;20145;-75
2022/04/21 07:27:37;;;;;;;4.40;2.75;;;;;;;20.21;27.45;100862.06;5010388;28;20054;-76
2022/04/21 07:30:05;;;;;;;4.38;2.78;;;;;;;20.39;27.05;100862.88;5011969;28;20512;-76
2022/04/21 07:32:32;;;;;;;4.20;2.75;;;;;;;20.57;27.02;100857.28;5007406;28;20137;-76
2022/04/21 07:35:00;;;;;;;4.05;2.80;;;;;;;20.74;26.68;100864.56;5006403;28;20058;-77
2022/04/21 07:37:30;;;;;;;4.25;2.50;;;;;;;20.91;26.74;100858.06;5009928;28;20053;-76
2022/04/21 07:39:57;;;;;;;4.32;2.65;;;;;;;21.03;26.28;100848.41;5011720;28;20081;-77
2022/04/21 07:42:24;;;;;;;4.05;2.72;;;;;;;21.15;26.08;100849.81;4996518;28;20160;-76
2022/04/21 07:44:51;;;;;;;3.95;2.75;;;;;;;21.26;25.78;100851.38;5008064;28;20133;-76
2022/04/21 07:47:18;;;;;;;5.25;2.83;;;;;;;21.36;25.94;100849.34;5007611;28;20050;-76
2022/04/21 07:49:48;;;;;;;4.45;2.40;;;;;;;;;;5011090;28;20493;-77
2022/04/21 07:55:16;;;;;;;4.57;2.97;;;;;;;21.56;25.30;100842.44;5004268;28;20429;-76
2022/04/21 07:57:43;;;;;;;4.38;2.97;;;;;;;21.56;25.01;100850.72;5005163;28;20046;-75
2022/04/21 08:00:12;;;;;;;4.43;2.85;;;;;;;21.56;25.20;100847.97;5008545;28;20112;-75
2022/04/21 08:02:43;;;;;;;4.65;2.75;;;;;;;21.60;24.48;100849.31;5007233;28;20050;-76
2022/04/21 08:05:13;;;;;;;4.75;2.50;;;;;;;21.57;24.95;100849.69;5009130;28;20137;-76
2022/04/21 08:07:40;;;;;;;3.42;2.38;;;;;;;21.51;25.16;100843.97;5010000;28;20046;-76
2022/04/21 08:10:10;;;;;;;3.95;2.10;;;;;;;21.54;25.14;100840.88;5003520;28;20053;-76
2022/04/21 08:12:42;;;;;;;2.67;1.90;;;;;;;21.53;24.94;100836.38;5009905;28;20077;-75
2022/04/21 08:15:11;;;;;;;3.58;2.00;;;;;;;21.56;24.96;100836.91;5001232;28;20088;-75
2022/04/21 08:17:39;;;;;;;3.47;2.10;;;;;;;21.60;25.07;100835.50;5004147;28;20066;-76
2022/04/21 08:20:10;;;;;;;3.70;2.30;;;;;;;21.69;23.73;100849.31;5007616;28;20053;-78
2022/04/21 08:22:37;;;;;;;3.20;2.10;;;;;;;21.75;24.79;100845.84;4999204;28;20065;-77
2022/04/21 08:33:23;;;;;;;2.92;1.90;;;;;;;21.94;23.63;100845.47;5008875;28;20046;-77
2022/04/21 08:35:50;;;;;;;3.78;1.80;;;;;;;21.95;23.19;100848.06;5009130;28;20440;-77
2022/04/21 08:38:17;;;;;;;2.70;1.90;;;;;;;21.99;23.39;100843.94;5009880;28;20413;-77
2022/04/21 08:41:09;;;;;;;2.40;1.58;;;;;;;22.02;23.31;100834.44;5007533;28;20042;-77
2022/04/21 08:43:36;;;;;;;2.88;1.60;;;;;;;22.05;22.96;100838.75;5003858;28;20084;-77
2022/04/21 08:46:04;;;;;;;2.30;1.60;;;;;;;22.11;22.49;100847.19;5004685;28;20070;-78
2022/04/21 08:48:34;;;;;;;2.92;1.65;;;;;;;22.10;22.16;100842.69;4996833;28;20486;-77
2022/04/21 08:51:02;;;;;;;3.70;1.58;;;;;;;22.05;21.44;100828.56;5000527;28;20053;-78
2022/04/21 08:53:30;;;;;;;3.10;1.52;;;;;;;22.11;20.89;100840.78;5003459;28;20054;-77
2022/04/21 08:55:57;;;;;;;2.72;1.50;;;;;;;22.08;21.23;100835.59;5007254;28;20127;-75
2022/04/21 08:58:24;;;;;;;2.83;1.58;;;;;;;22.05;20.94;100827.69;5002619;28;20073;-76
2022/04/21 09:00:53;;;;;;;2.65;1.58;;;;;;;21.93;20.30;100824.38;5003324;28;20058;-77
2022/04/21 09:03:22;;;;;;;3.72;1.80;;;;;;;21.93;20.71;100822.50;5004115;28;20081;-77
2022/04/21 09:05:49;;;;;;;2.25;1.50;;;;;;;21.90;20.22;100822.88;5001675;28;20058;-77
2022/04/21 09:08:19;;;;;;;1.95;1.30;;;;;;;21.92;20.45;100829.06;5006211;28;20087;-77
2022/04/21 09:11:07;;;;;;;3.03;1.48;;;;;;;21.92;19.82;100822.66;5011104;28;20056;-76
2022/04/21 09:13:39;;;;;;;3.85;1.50;;;;;;;21.90;20.52;100816.47;5001757;28;20437;-75
2022/04/21 09:16:12;;;;;;;2.75;1.23;;;;;;;21.93;19.60;100813.34;5005222;28;20072;-76
2022/04/21 09:18:46;;;;;;;2.92;1.58;;;;;;;21.91;19.98;100816.28;5008953;28;20058;-77
2022/04/21 09:21:16;;;;;;;2.63;1.60;;;;;;;21.90;20.20;100808.19;5000211;28;20046;-77
2022/04/21 09:23:44;;;;;;;3.20;2.00;;;;;;;21.91;19.86;100813.50;5006762;28;20532;-78
2022/04/21 09:26:16;;;;;;;2.70;1.60;;;;;;;21.93;19.18;100814.19;5007555;28;20169;-77
2022/04/21 09:28:57;;;;;;;3.28;1.50;;;;;;;21.96;19.35;100802.78;5001523;28;20069;-77
2022/04/21 09:31:25;;;;;;;3.33;1.42;;;;;;;21.93;19.77;100799.50;5005765;28;20049;-77
2022/04/21 09:33:52;;;;;;;2.42;1.40;;;;;;;21.93;19.76;100794.84;5005268;28;20058;-78
2022/04/21 09:36:18;;;;;;;2.63;1.33;;;;;;;21.99;19.65;100790.53;5012876;28;20072;-78
2022/04/21 09:39:09;;;;;;;2.38;1.35;;;;;;;22.00;19.30;100798.66;5011889;28;20045;-78
2022/04/21 09:41:35;;;;;;;2.42;1.42;;;;;;;21.98;19.23;100792.47;5007504;28;20046;-78
2022/04/21 09:47:05;;;;;;;3.70;1.60;;;;;;;22.00;18.88;100789.50;5009041;28;20046;-77
2022/04/21 09:49:42;;;;;;;2.38;1.60;;;;;;;22.00;19.05;100787.59;5005265;28;20078;-81
2022/04/21 09:52:08;;;;;;;3.72;1.60;;;;;;;21.98;19.11;100800.75;5007680;28;20169;-82
2022/04/21 09:54:36;;;;;;;3.22;1.40;;;;;;;21.97;19.17;100785.22;5010678;28;20054;-77
2022/04/21 09:57:04;;;;;;;2.50;1.50;;;;;;;21.98;19.41;100786.06;5012582;28;20409;-78
2022/04/21 09:59:35;;;;;;;3.60;1.65;;;;;;;21.98;19.62;100786.94;4994699;28;20060;-82
2022/04/21 10:02:03;;;;;;;3.00;1.55;;;;;;;21.97;19.78;100776.03;5012005;28;20053;-83
2022/04/21 10:04:36;;;;;;;2.83;1.73;;;;;;;22.00;20.13;100772.91;5007480;28;20108;-88
2022/04/21 10:07:05;;;;;;;2.42;1.50;;;;;;;22.01;20.31;100778.25;5013743;28;20080;-87
2022/04/21 10:10:36;;;;;;;3.45;1.77;;;;;;;22.02;20.61;100768.06;5022190;28;20050;-88
2022/04/21 10:18:22;;;;;;;;;;;;;;;;;;;;;
2022/04/21 10:21:03;;;;;;;4.78;2.30;;;;;;;22.15;20.25;100756.44;4876766;29;20056;-87
2022/04/21 10:24:23;;;;;;;3.70;2.00;;;;;;;22.11;20.30;100764.22;4863160;29;21288;-89
2022/04/21 10:26:49;;;;;;;3.33;1.80;;;;;;;22.19;20.14;100755.03;4800298;29;20054;-82
2022/04/21 10:29:29;;;;;;;3.30;1.80;;;;;;;22.17;20.13;100755.22;4872078;29;20061;-83
2022/04/21 10:31:59;;;;;;;3.10;1.83;;;;;;;22.15;20.00;100750.91;4874286;29;20064;-82
2022/04/21 10:34:37;;;;;;;2.92;1.58;;;;;;;22.13;20.08;100753.00;4873587;29;20041;-83
2022/04/21 10:37:10;;;;;;;3.25;1.58;;;;;;;22.15;19.47;100759.22;4876313;29;20064;-83
2022/04/21 10:40:01;;;;;;;4.35;1.90;;;;;;;22.06;20.04;100763.91;4874136;29;20303;-83
2022/04/21 10:42:28;;;;;;;2.92;1.73;;;;;;;22.01;19.82;100749.75;4876436;29;20097;-84
2022/04/21 10:44:55;;;;;;;3.63;1.90;;;;;;;21.96;19.60;100741.97;4878740;29;20127;-83
2022/04/21 10:47:37;;;;;;;2.90;1.63;;;;;;;21.90;19.60;100748.22;4912717;29;20344;-83
2022/04/21 10:50:14;;;;;;;3.13;1.63;;;;;;;21.85;19.44;100747.88;4912604;29;20055;-83
2022/04/21 10:58:38;;;;;;;3.25;1.70;;;;;;;21.60;19.84;100752.63;4998819;28;20472;-83
2022/04/21 11:01:24;;;;;;;3.13;1.55;;;;;;;21.53;20.25;100753.50;5009251;28;20046;-84
2022/04/21 11:04:07;;;;;;;3.60;1.80;;;;;;;21.54;19.96;100744.19;5027390;28;20060;-83
2022/04/21 11:06:56;;;;;;;;;;;;;;;21.24;20.62;100734.75;5012551;28;20088;-83
2022/04/21 11:09:47;;;;;;;2.33;1.55;;;;;;;21.36;20.35;100733.31;5003862;28;19922;-82
2022/04/21 11:12:49;;;;;;;3.65;1.70;;;;;;;21.30;20.76;100728.50;5009034;28;20046;-82
2022/04/21 11:15:39;;;;;;;2.85;1.83;;;;;;;21.21;20.95;100733.19;5023934;28;20046;-81
2022/04/21 11:18:13;;;;;;;3.53;1.80;;;;;;;21.17;21.38;100734.56;5006441;28;20069;-83
2022/04/21 11:20:47;;;;;;;3.85;2.00;;;;;;;21.16;21.67;100734.72;5007435;28;20049;-81
2022/04/21 11:23:24;;;;;;;4.35;2.30;;;;;;;21.06;21.37;100721.09;5010265;28;20049;-83
2022/04/21 11:25:52;;;;;;;4.68;2.20;;;;;;;21.06;21.67;100721.09;5012056;28;20062;-83
2022/04/21 11:28:25;;;;;;;5.55;2.40;;;;;;;21.07;21.45;100725.59;5012534;28;20125;-82
2022/04/21 11:30:59;;;;;;;5.05;2.50;;;;;;;21.07;21.79;100724.72;5016684;28;20104;-83
2022/04/21 11:33:26;;;;;;;4.40;2.45;;;;;;;21.02;21.82;100718.84;5001729;28;20057;-82
2022/04/21 11:36:12;;;;;;;4.38;2.70;;;;;;;21.00;21.77;100716.25;5011387;28;20108;-82
2022/04/21 11:38:47;;;;;;;4.00;2.60;;;;;;;20.97;22.13;100705.56;5008007;28;20060;-84
2022/04/21 11:41:17;;;;;;;3.70;2.40;;;;;;;20.99;21.99;100716.44;5011539;28;20286;-83
2022/04/21 11:43:50;;;;;;;4.82;2.60;;;;;;;20.96;22.43;100702.97;5005706;28;20054;-84
2022/04/21 11:46:20;;;;;;;4.32;2.42;;;;;;;20.95;22.67;100706.75;5009828;28;20061;-84
2022/04/21 11:48:58;;;;;;;3.38;2.42;;;;;;;20.98;22.30;100706.44;5004537;28;20064;-83
2022/04/21 11:51:25;;;;;;;5.03;2.70;;;;;;;20.92;22.50;100699.69;5000114;28;20052;-87
2022/04/21 11:53:55;;;;;;;4.18;2.45;;;;;;;20.96;22.80;100703.84;5002729;28;20057;-87
2022/04/21 11:56:22;;;;;;;4.95;2.50;;;;;;;20.99;22.47;100703.50;4997115;28;20050;-87
2022/04/21 11:58:49;;;;;;;4.70;2.42;;;;;;;21.00;22.77;100701.59;5003780;28;20061;-83
2022/04/21 12:06:58;;;;;;;4.03;2.05;;;;;;;21.05;23.58;100691.75;5010253;28;20054;-83
2022/04/21 12:09:26;;;;;;;3.72;2.30;;;;;;;21.07;22.98;100694.34;5006170;28;20064;-83
2022/04/21 12:11:59;;;;;;;4.38;2.35;;;;;;;21.15;23.91;100692.44;5006316;28;20498;-82
2022/04/21 12:14:30;;;;;;;3.67;2.22;;;;;;;21.21;23.79;100686.25;5009092;28;20053;-84
2022/04/21 12:16:58;;;;;;;4.78;2.38;;;;;;;21.25;23.54;100682.06;5008388;28;20052;-84
2022/04/21 12:19:38;;;;;;;3.47;2.35;;;;;;;21.36;23.73;100680.00;5006048;28;20054;-85
2022/04/21 12:22:10;;;;;;;4.20;2.58;;;;;;;21.42;23.40;100682.91;5002531;28;20084;-87
2022/04/21 12:24:38;;;;;;;4.38;2.45;;;;;;;21.53;23.50;100671.47;5009407;28;20061;-86
2022/04/21 12:27:22;;;;;;;3.35;1.95;;;;;;;21.66;23.33;100665.38;5009321;28;20050;-85
2022/04/21 12:30:04;;;;;;;5.63;2.42;;;;;;;21.67;23.67;100666.25;5004965;28;20078;-84
2022/04/21 12:32:33;;;;;;;3.70;2.15;;;;;;;21.78;23.19;100663.09;5011965;28;20085;-84
2022/04/21 12:35:03;;;;;;;3.88;2.08;;;;;;;21.86;23.47;100663.91;5010156;28;20042;-85
2022/04/21 12:37:34;;;;;;;3.83;2.38;;;;;;;21.98;23.38;100653.38;5011595;28;20134;-87
2022/04/21 12:40:05;;;;;;;3.63;2.20;;;;;;;22.03;23.53;100656.44;5011281;28;20061;-86